createdAt,value
2022-09-10T00:00:58.473Z,21.58
2022-09-10T00:02:30.242Z,21.58
2022-09-10T00:04:02.314Z,21.59
2022-09-10T00:05:46.062Z,21.63
2022-09-10T00:07:18.819Z,21.64
2022-09-10T00:08:50.395Z,21.70
2022-09-10T00:10:22.154Z,21.66
2022-09-10T00:11:54.226Z,21.66
2022-09-10T00:13:25.741Z,21.68
2022-09-10T00:14:57.364Z,21.70
2022-09-10T00:16:29.753Z,21.66
2022-09-10T00:18:01.337Z,21.68
2022-09-10T00:19:32.831Z,21.69
2022-09-10T00:21:12.105Z,21.72
2022-09-10T00:22:44.131Z,21.74
2022-09-10T00:24:15.669Z,21.74
2022-09-10T00:25:48.332Z,21.73
2022-09-10T00:27:19.884Z,21.76
2022-09-10T00:28:51.920Z,21.81
2022-09-10T00:30:23.487Z,21.85
2022-09-10T00:31:55.151Z,21.91
2022-09-10T00:33:26.679Z,21.96
2022-09-10T00:35:01.352Z,21.98
2022-09-10T00:36:34.977Z,21.96
2022-09-10T00:38:06.932Z,21.96
2022-09-10T00:39:38.525Z,21.98
2022-09-10T00:41:10.025Z,22.03
2022-09-10T00:42:44.300Z,22.01
2022-09-10T00:44:35.707Z,21.99
2022-09-10T00:46:07.275Z,22.00
2022-09-10T00:47:38.906Z,21.99
2022-09-10T00:49:21.435Z,22.01
2022-09-10T00:50:53.015Z,22.02
2022-09-10T00:52:24.809Z,22.03
2022-09-10T00:53:56.376Z,22.03
2022-09-10T00:55:28.054Z,22.02
2022-09-10T00:57:00.115Z,22.02
2022-09-10T00:58:31.705Z,22.01
2022-09-10T01:00:05.421Z,22.01
2022-09-10T01:01:37.423Z,21.99
2022-09-10T01:03:11.245Z,22.00
2022-09-10T01:04:43.118Z,21.98
2022-09-10T01:06:14.762Z,21.98
2022-09-10T01:07:47.108Z,22.01
2022-09-10T01:09:19.336Z,22.05
2022-09-10T01:10:59.867Z,22.05
2022-09-10T01:12:50.563Z,22.08
2022-09-10T01:14:41.169Z,22.07
2022-09-10T01:16:24.880Z,22.07
2022-09-10T01:18:08.929Z,22.05
2022-09-10T01:20:00.676Z,22.05
2022-09-10T01:21:55.411Z,22.02
2022-09-10T01:23:37.724Z,22.00
2022-09-10T01:25:15.234Z,21.97
2022-09-10T01:26:59.113Z,21.95
2022-09-10T01:28:31.446Z,21.91
2022-09-10T01:30:07.854Z,21.92
2022-09-10T01:32:02.619Z,21.93
2022-09-10T01:33:35.035Z,21.99
2022-09-10T01:35:15.251Z,22.06
2022-09-10T01:36:48.497Z,22.08
2022-09-10T01:38:27.236Z,22.07
2022-09-10T01:39:59.285Z,22.05
2022-09-10T01:41:30.934Z,22.00
2022-09-10T01:43:03.370Z,22.00
2022-09-10T01:44:47.115Z,21.92
2022-09-10T01:46:23.673Z,21.90
2022-09-10T01:48:19.518Z,21.90
2022-09-10T01:52:45.187Z,21.91
2022-09-10T01:54:26.564Z,21.93
2022-09-10T01:56:19.734Z,21.95
2022-09-10T01:57:55.511Z,21.95
2022-09-10T01:59:35.906Z,21.96
2022-09-10T02:01:07.460Z,21.94
2022-09-10T02:02:42.173Z,21.93
2022-09-10T02:04:14.966Z,21.91
2022-09-10T02:05:47.095Z,21.92
2022-09-10T02:07:19.270Z,21.89
2022-09-10T02:08:52.472Z,21.90
2022-09-10T02:10:24.056Z,21.91
2022-09-10T02:11:56.557Z,21.93
2022-09-10T02:13:29.811Z,21.91
2022-09-10T02:15:01.383Z,21.88
2022-09-10T02:16:37.837Z,21.84
2022-09-10T02:18:09.659Z,21.83
2022-09-10T02:19:45.044Z,21.81
2022-09-10T02:21:16.647Z,21.78
2022-09-10T02:22:49.214Z,21.77
2022-09-10T02:24:21.354Z,21.77
2022-09-10T02:25:53.872Z,21.74
2022-09-10T02:27:25.383Z,21.68
2022-09-10T02:28:57.089Z,21.66
2022-09-10T02:30:29.629Z,21.64
2022-09-10T02:32:01.886Z,21.65
2022-09-10T02:33:34.263Z,21.66
2022-09-10T02:35:06.234Z,21.67
2022-09-10T02:36:38.041Z,21.68
2022-09-10T02:38:09.905Z,21.68
2022-09-10T02:39:41.778Z,21.68
2022-09-10T02:41:14.206Z,21.68
2022-09-10T02:42:46.887Z,21.66
2022-09-10T02:44:18.883Z,21.67
2022-09-10T02:45:51.085Z,21.64
2022-09-10T02:47:23.146Z,21.62
2022-09-10T02:48:55.286Z,21.64
2022-09-10T02:50:26.808Z,21.63
2022-09-10T02:51:58.298Z,21.61
2022-09-10T02:53:31.753Z,21.59
2022-09-10T02:55:03.466Z,21.55
2022-09-10T02:56:35.155Z,21.55
2022-09-10T02:58:07.303Z,21.56
2022-09-10T02:59:38.867Z,21.54
2022-09-10T03:01:11.388Z,21.55
2022-09-10T03:02:43.431Z,21.55
2022-09-10T03:04:15.214Z,21.52
2022-09-10T03:05:47.568Z,21.50
2022-09-10T03:07:20.435Z,21.49
2022-09-10T03:08:52.058Z,21.46
2022-09-10T03:10:24.622Z,21.44
2022-09-10T03:11:56.957Z,21.42
2022-09-10T03:13:28.596Z,21.40
2022-09-10T03:15:00.117Z,21.39
2022-09-10T03:16:31.830Z,21.37
2022-09-10T03:18:03.448Z,21.32
2022-09-10T03:19:35.249Z,21.31
2022-09-10T03:21:10.018Z,21.29
2022-09-10T03:22:41.719Z,21.27
2022-09-10T03:24:15.322Z,21.25
2022-09-10T03:25:49.769Z,21.23
2022-09-10T03:27:22.903Z,21.22
2022-09-10T03:28:55.012Z,21.21
2022-09-10T03:30:26.842Z,21.19
2022-09-10T03:31:58.401Z,21.16
2022-09-10T03:33:29.893Z,21.14
2022-09-10T03:35:01.339Z,21.12
2022-09-10T03:36:32.824Z,21.14
2022-09-10T03:38:04.399Z,21.12
2022-09-10T03:39:36.077Z,21.12
2022-09-10T03:41:07.668Z,21.16
2022-09-10T03:42:39.395Z,21.18
2022-09-10T03:44:11.411Z,21.22
2022-09-10T03:45:42.945Z,21.27
2022-09-10T03:47:14.575Z,21.29
2022-09-10T03:48:46.081Z,21.33
2022-09-10T03:50:17.672Z,21.38
2022-09-10T03:51:49.206Z,21.43
2022-09-10T03:53:20.989Z,21.45
2022-09-10T03:54:52.573Z,21.50
2022-09-10T03:56:24.243Z,21.53
2022-09-10T03:57:55.816Z,21.51
2022-09-10T03:59:27.337Z,21.49
2022-09-10T04:00:59.165Z,21.46
2022-09-10T04:02:30.975Z,21.45
2022-09-10T04:04:03.232Z,21.42
2022-09-10T04:05:35.184Z,21.42
2022-09-10T04:07:07.242Z,21.44
2022-09-10T04:08:39.208Z,21.44
2022-09-10T04:10:11.046Z,21.42
2022-09-10T04:11:42.590Z,21.40
2022-09-10T04:13:14.191Z,21.38
2022-09-10T04:14:46.953Z,21.35
2022-09-10T04:16:18.644Z,21.33
2022-09-10T04:17:53.057Z,21.26
2022-09-10T04:19:24.780Z,21.22
2022-09-10T04:20:59.113Z,21.14
2022-09-10T04:22:30.684Z,21.10
2022-09-10T04:24:03.193Z,21.08
2022-09-10T04:25:34.820Z,21.10
2022-09-10T04:27:06.657Z,21.13
2022-09-10T04:28:38.589Z,21.11
2022-09-10T04:30:10.772Z,21.07
2022-09-10T04:31:42.621Z,21.03
2022-09-10T04:33:14.343Z,20.99
2022-09-10T04:34:46.389Z,20.96
2022-09-10T04:36:17.923Z,20.95
2022-09-10T04:37:49.557Z,20.97
2022-09-10T04:39:21.218Z,20.96
2022-09-10T04:40:52.898Z,20.99
2022-09-10T04:42:24.762Z,20.99
2022-09-10T04:43:56.577Z,20.99
2022-09-10T04:45:28.634Z,20.98
2022-09-10T04:47:00.563Z,21.00
2022-09-10T04:48:32.338Z,21.00
2022-09-10T04:50:04.209Z,21.01
2022-09-10T04:51:35.954Z,21.05
2022-09-10T04:53:08.096Z,21.08
2022-09-10T04:54:39.771Z,21.12
2022-09-10T04:56:11.564Z,21.17
2022-09-10T04:57:43.162Z,21.20
2022-09-10T04:59:14.674Z,21.24
2022-09-10T05:00:46.368Z,21.30
2022-09-10T05:02:18.025Z,21.39
2022-09-10T05:03:49.654Z,21.45
2022-09-10T05:05:21.162Z,21.47
2022-09-10T05:06:53.655Z,21.50
2022-09-10T05:08:25.297Z,21.52
2022-09-10T05:09:56.970Z,21.54
2022-09-10T05:11:29.073Z,21.57
2022-09-10T05:13:00.953Z,21.58
2022-09-10T05:14:34.063Z,21.61
2022-09-10T05:16:06.387Z,21.61
2022-09-10T05:17:38.049Z,21.63
2022-09-10T05:19:17.803Z,21.66
2022-09-10T05:20:49.502Z,21.66
2022-09-10T05:22:21.981Z,21.68
2022-09-10T05:23:53.654Z,21.68
2022-09-10T05:25:25.247Z,21.69
2022-09-10T05:26:57.092Z,21.70
2022-09-10T05:28:28.759Z,21.71
2022-09-10T05:30:00.367Z,21.73
2022-09-10T05:31:32.487Z,21.74
2022-09-10T05:33:04.291Z,21.76
2022-09-10T05:34:35.898Z,21.83
2022-09-10T05:36:09.362Z,21.87
2022-09-10T05:37:40.988Z,21.88
2022-09-10T05:39:12.552Z,21.87
2022-09-10T05:40:44.400Z,21.89
2022-09-10T05:42:16.386Z,21.89
2022-09-10T05:43:48.295Z,21.89
2022-09-10T05:45:20.403Z,21.92
2022-09-10T05:46:52.319Z,21.95
2022-09-10T05:48:23.880Z,22.00
2022-09-10T05:49:56.501Z,22.02
2022-09-10T05:51:30.044Z,22.07
2022-09-10T05:53:01.636Z,22.11
2022-09-10T05:54:33.281Z,22.11
2022-09-10T05:56:05.921Z,22.16
2022-09-10T05:57:37.745Z,22.22
2022-09-10T05:59:10.846Z,22.32
2022-09-10T06:00:43.337Z,22.41
2022-09-10T06:02:23.226Z,22.50
2022-09-10T06:03:56.357Z,22.59
2022-09-10T06:05:28.915Z,22.63
2022-09-10T06:07:02.167Z,22.69
2022-09-10T06:08:33.814Z,22.75
2022-09-10T06:10:05.768Z,22.80
2022-09-10T06:11:37.554Z,22.88
2022-09-10T06:13:09.333Z,22.94
2022-09-10T06:14:40.863Z,23.01
2022-09-10T06:16:12.724Z,23.09
2022-09-10T06:17:45.076Z,23.18
2022-09-10T06:19:16.877Z,23.23
2022-09-10T06:20:48.431Z,23.22
2022-09-10T06:22:20.079Z,23.25
2022-09-10T06:23:54.870Z,23.26
2022-09-10T06:25:26.385Z,23.17
2022-09-10T06:26:58.217Z,23.12
2022-09-10T06:28:30.096Z,23.13
2022-09-10T06:30:01.685Z,23.11
2022-09-10T06:31:34.831Z,23.14
2022-09-10T06:33:06.515Z,23.14
2022-09-10T06:34:38.682Z,23.13
2022-09-10T06:36:11.438Z,23.09
2022-09-10T06:37:43.090Z,23.11
2022-09-10T06:39:14.671Z,23.19
2022-09-10T06:40:54.770Z,23.27
2022-09-10T06:42:26.336Z,23.35
2022-09-10T06:43:57.959Z,23.47
2022-09-10T06:45:29.547Z,23.55
2022-09-10T06:47:45.923Z,23.66
2022-09-10T06:48:54.053Z,23.81
2022-09-10T06:50:26.652Z,23.89
2022-09-10T06:51:58.265Z,24.02
2022-09-10T06:53:29.919Z,24.12
2022-09-10T06:55:01.724Z,24.18
2022-09-10T06:56:33.631Z,24.17
2022-09-10T06:58:05.393Z,24.16
2022-09-10T06:59:37.005Z,24.12
2022-09-10T07:01:15.954Z,24.24
2022-09-10T07:02:49.473Z,24.44
2022-09-10T07:04:21.114Z,24.59
2022-09-10T07:05:55.991Z,24.79
2022-09-10T07:07:28.443Z,24.95
2022-09-10T07:09:00.105Z,25.07
2022-09-10T07:10:32.397Z,25.18
2022-09-10T07:12:05.268Z,25.15
2022-09-10T07:13:37.699Z,25.09
2022-09-10T07:15:09.868Z,25.09
2022-09-10T07:16:45.796Z,25.10
2022-09-10T07:18:18.169Z,25.19
2022-09-10T07:19:50.007Z,25.19
2022-09-10T07:21:21.906Z,25.31
2022-09-10T07:22:53.612Z,25.32
2022-09-10T07:24:25.467Z,25.29
2022-09-10T07:26:03.792Z,25.29
2022-09-10T07:27:35.414Z,25.32
2022-09-10T07:29:07.968Z,25.30
2022-09-10T07:30:43.045Z,25.31
2022-09-10T07:32:15.341Z,25.36
2022-09-10T07:33:47.503Z,25.43
2022-09-10T07:35:19.094Z,25.53
2022-09-10T07:36:51.067Z,25.63
2022-09-10T07:38:22.924Z,25.71
2022-09-10T07:39:54.906Z,25.74
2022-09-10T07:41:30.206Z,25.73
2022-09-10T07:43:01.938Z,25.81
2022-09-10T07:44:33.539Z,25.93
2022-09-10T07:46:06.433Z,26.00
2022-09-10T07:47:38.823Z,26.02
2022-09-10T07:49:11.082Z,25.95
2022-09-10T07:50:42.705Z,25.95
2022-09-10T07:52:14.928Z,25.96
2022-09-10T07:53:50.467Z,26.00
2022-09-10T07:55:23.623Z,26.15
2022-09-10T07:56:55.296Z,26.16
2022-09-10T07:58:28.381Z,26.13
2022-09-10T08:00:00.994Z,26.12
2022-09-10T08:01:33.261Z,26.19
2022-09-10T08:03:04.864Z,26.34
2022-09-10T08:04:37.747Z,26.49
2022-09-10T08:06:09.766Z,26.57
2022-09-10T08:07:41.645Z,26.64
2022-09-10T08:09:15.141Z,26.75
2022-09-10T08:10:47.153Z,26.84
2022-09-10T08:12:18.774Z,26.87
2022-09-10T08:13:51.051Z,26.89
2022-09-10T08:15:23.538Z,26.92
2022-09-10T08:16:55.132Z,26.93
2022-09-10T08:18:27.135Z,26.99
2022-09-10T08:19:59.593Z,26.95
2022-09-10T08:21:32.042Z,26.84
2022-09-10T08:23:03.647Z,26.81
2022-09-10T08:24:35.243Z,26.84
2022-09-10T08:26:08.285Z,26.89
2022-09-10T08:27:42.913Z,26.94
2022-09-10T08:29:14.777Z,27.01
2022-09-10T08:30:57.363Z,27.03
2022-09-10T08:32:29.676Z,27.08
2022-09-10T08:34:01.759Z,27.14
2022-09-10T08:35:33.300Z,27.14
2022-09-10T08:37:05.341Z,27.03
2022-09-10T08:38:37.505Z,27.10
2022-09-10T08:40:12.253Z,27.17
2022-09-10T08:41:52.627Z,27.22
2022-09-10T08:43:35.447Z,27.28
2022-09-10T08:45:10.834Z,27.28
2022-09-10T08:46:42.552Z,27.35
2022-09-10T08:48:17.945Z,27.41
2022-09-10T08:49:50.588Z,27.27
2022-09-10T08:51:27.814Z,27.32
2022-09-10T08:53:18.089Z,27.35
2022-09-10T08:54:58.711Z,27.29
2022-09-10T08:56:31.335Z,27.40
2022-09-10T08:58:19.721Z,27.37
2022-09-10T08:59:52.738Z,27.36
2022-09-10T09:01:28.593Z,27.41
2022-09-10T09:03:02.626Z,27.47
2022-09-10T09:04:34.306Z,27.52
2022-09-10T09:06:08.107Z,27.55
2022-09-10T09:07:40.676Z,27.46
2022-09-10T09:09:15.686Z,27.38
2022-09-10T09:10:50.962Z,27.18
2022-09-10T09:12:29.946Z,27.07
2022-09-10T09:14:34.871Z,27.07
2022-09-10T09:16:15.717Z,27.04
2022-09-10T09:18:08.983Z,27.03
2022-09-10T09:19:59.411Z,27.10
2022-09-10T09:21:38.082Z,27.13
2022-09-10T09:23:13.027Z,27.06
2022-09-10T09:25:01.958Z,27.04
2022-09-10T09:26:36.934Z,26.97
2022-09-10T09:28:12.295Z,26.87
2022-09-10T09:29:46.899Z,26.80
2022-09-10T09:31:43.051Z,26.88
2022-09-10T09:33:16.597Z,27.06
2022-09-10T09:35:11.151Z,27.18
2022-09-10T09:36:45.139Z,27.35
2022-09-10T09:38:19.779Z,27.40
2022-09-10T09:40:05.318Z,27.56
2022-09-10T09:41:47.600Z,27.75
2022-09-10T09:43:31.676Z,27.82
2022-09-10T09:45:07.837Z,27.92
2022-09-10T09:46:39.378Z,27.98
2022-09-10T09:48:16.162Z,28.02
2022-09-10T09:49:47.739Z,28.11
2022-09-10T09:51:23.098Z,28.26
2022-09-10T09:52:55.402Z,28.43
2022-09-10T09:55:12.463Z,28.55
2022-09-10T09:56:29.036Z,28.67
2022-09-10T09:58:19.513Z,28.85
2022-09-10T09:59:51.172Z,28.88
2022-09-10T10:01:24.110Z,29.04
2022-09-10T10:02:56.261Z,29.16
2022-09-10T10:04:31.276Z,29.31
2022-09-10T10:06:03.376Z,29.41
2022-09-10T10:07:36.260Z,29.49
2022-09-10T10:09:10.448Z,29.54
2022-09-10T10:10:42.080Z,29.58
2022-09-10T10:12:19.003Z,29.61
2022-09-10T10:13:51.937Z,29.56
2022-09-10T10:15:56.381Z,29.50
2022-09-10T10:17:30.345Z,29.28
2022-09-10T10:19:02.247Z,29.28
2022-09-10T10:20:37.107Z,29.47
2022-09-10T10:22:15.195Z,29.61
2022-09-10T10:23:47.188Z,29.82
2022-09-10T10:25:36.841Z,29.99
2022-09-10T10:27:14.551Z,29.83
2022-09-10T10:28:46.725Z,29.65
2022-09-10T10:30:18.429Z,29.56
2022-09-10T10:31:50.156Z,29.51
2022-09-10T10:33:24.976Z,29.57
2022-09-10T10:35:05.158Z,29.53
2022-09-10T10:36:44.159Z,29.54
2022-09-10T10:38:25.536Z,29.58
2022-09-10T10:40:01.366Z,29.53
2022-09-10T10:41:43.294Z,29.41
2022-09-10T10:43:33.308Z,29.26
2022-09-10T10:45:08.418Z,29.31
2022-09-10T10:46:46.768Z,29.44
2022-09-10T10:48:35.421Z,29.60
2022-09-10T10:50:09.262Z,29.76
2022-09-10T10:51:40.807Z,29.64
2022-09-10T10:53:20.138Z,29.58
2022-09-10T10:55:09.828Z,29.53
2022-09-10T10:56:57.581Z,29.48
2022-09-10T10:58:32.388Z,29.59
2022-09-10T11:00:07.299Z,29.69
2022-09-10T11:01:41.650Z,29.76
2022-09-10T11:03:22.748Z,29.91
2022-09-10T11:04:54.979Z,30.08
2022-09-10T11:06:27.747Z,30.12
2022-09-10T11:08:04.481Z,30.13
2022-09-10T11:09:39.254Z,30.08
2022-09-10T11:11:10.865Z,30.09
2022-09-10T11:12:57.222Z,30.01
2022-09-10T11:14:36.553Z,30.05
2022-09-10T11:16:29.053Z,30.10
2022-09-10T11:18:13.121Z,30.05
2022-09-10T11:20:27.260Z,30.13
2022-09-10T11:21:59.102Z,30.15
2022-09-10T11:23:42.497Z,30.04
2022-09-10T11:25:14.068Z,29.95
2022-09-10T11:26:45.697Z,30.02
2022-09-10T11:28:19.806Z,30.10
2022-09-10T11:29:53.939Z,30.33
2022-09-10T11:31:25.544Z,30.49
2022-09-10T11:33:17.681Z,30.63
2022-09-10T11:35:03.021Z,30.70
2022-09-10T11:36:43.454Z,30.91
2022-09-10T11:38:17.393Z,30.94
2022-09-10T11:39:49.383Z,31.03
2022-09-10T11:41:26.158Z,31.15
2022-09-10T11:43:03.277Z,31.27
2022-09-10T11:44:43.799Z,31.37
2022-09-10T11:46:27.769Z,31.53
2022-09-10T11:48:07.930Z,31.56
2022-09-10T11:49:42.508Z,31.72
2022-09-10T11:51:19.986Z,31.80
2022-09-10T11:52:53.540Z,31.62
2022-09-10T11:54:26.582Z,31.47
2022-09-10T11:56:30.873Z,31.48
2022-09-10T11:58:05.040Z,31.54
2022-09-10T11:59:58.617Z,31.63
2022-09-10T12:01:39.370Z,31.50
2022-09-10T12:03:14.005Z,31.45
2022-09-10T12:05:03.144Z,31.39
2022-09-10T12:06:44.900Z,31.39
2022-09-10T12:08:33.542Z,31.42
2022-09-10T12:10:14.343Z,31.48
2022-09-10T12:11:56.467Z,31.37
2022-09-10T12:13:28.336Z,31.15
2022-09-10T12:15:00.437Z,30.96
2022-09-10T12:16:50.906Z,30.80
2022-09-10T12:18:28.243Z,30.65
2022-09-10T12:20:00.382Z,30.64
2022-09-10T12:21:41.579Z,30.71
2022-09-10T12:23:18.609Z,30.68
2022-09-10T12:25:01.217Z,30.74
2022-09-10T12:26:41.116Z,30.87
2022-09-10T12:28:48.415Z,30.93
2022-09-10T12:30:33.628Z,31.02
2022-09-10T12:32:08.317Z,31.09
2022-09-10T12:33:43.411Z,31.14
2022-09-10T12:35:36.003Z,31.06
2022-09-10T12:37:19.280Z,30.98
2022-09-10T12:38:54.784Z,31.07
2022-09-10T12:40:26.371Z,31.02
2022-09-10T12:42:02.162Z,31.05
2022-09-10T12:43:40.124Z,31.01
2022-09-10T12:45:12.335Z,30.84
2022-09-10T12:46:48.454Z,30.66
2022-09-10T12:48:22.851Z,30.65
2022-09-10T12:49:57.861Z,30.60
2022-09-10T12:51:47.845Z,30.63
2022-09-10T12:53:23.557Z,30.62
2022-09-10T12:55:13.838Z,30.76
2022-09-10T12:56:58.403Z,30.91
2022-09-10T12:58:33.384Z,31.04
2022-09-10T13:00:18.630Z,31.04
2022-09-10T13:01:51.535Z,31.08
2022-09-10T13:03:24.521Z,31.21
2022-09-10T13:05:01.112Z,31.35
2022-09-10T13:06:37.186Z,31.59
2022-09-10T17:33:03.205Z,25.56
2022-09-10T17:35:02.549Z,25.57
2022-09-10T17:36:34.135Z,25.57
2022-09-10T17:38:06.766Z,25.56
2022-09-10T17:39:38.320Z,25.53
2022-09-10T17:41:10.489Z,25.55
2022-09-10T17:42:42.667Z,25.52
2022-09-10T17:44:14.861Z,25.48
2022-09-10T17:45:46.664Z,25.49
2022-09-10T17:47:18.268Z,25.49
2022-09-10T17:48:50.446Z,25.49
2022-09-10T17:50:22.065Z,25.44
2022-09-10T17:51:53.675Z,25.35
2022-09-10T17:53:25.210Z,25.32
2022-09-10T17:54:58.157Z,25.25
2022-09-10T17:56:29.810Z,25.25
2022-09-10T17:58:01.472Z,25.25
2022-09-10T17:59:33.305Z,25.25
2022-09-10T18:01:06.014Z,25.27
2022-09-10T18:02:37.659Z,25.27
2022-09-10T18:04:10.116Z,25.27
2022-09-10T18:05:42.424Z,25.28
2022-09-10T18:07:14.293Z,25.28
2022-09-10T18:08:46.086Z,25.26
2022-09-10T18:10:18.050Z,25.24
2022-09-10T18:11:49.529Z,25.24
2022-09-10T18:13:21.075Z,25.22
2022-09-10T18:14:52.773Z,25.20
2022-09-10T18:16:25.377Z,25.14
2022-09-10T18:17:59.478Z,25.07
2022-09-10T18:19:32.866Z,25.01
2022-09-10T18:21:31.517Z,25.00
2022-09-10T18:23:03.038Z,24.97
2022-09-10T18:24:34.791Z,24.99
2022-09-10T18:26:13.192Z,24.96
2022-09-10T18:27:45.883Z,24.99
2022-09-10T18:29:19.265Z,24.95
2022-09-10T18:30:51.003Z,24.92
2022-09-10T18:32:26.091Z,24.87
2022-09-10T18:33:58.453Z,24.87
2022-09-10T18:35:30.431Z,24.85
2022-09-10T18:37:02.719Z,24.82
2022-09-10T18:38:34.469Z,24.78
2022-09-10T18:40:07.185Z,24.76
2022-09-10T18:41:39.622Z,24.75
2022-09-10T18:43:13.845Z,24.75
2022-09-10T18:44:45.914Z,24.76
2022-09-10T18:46:17.932Z,24.71
2022-09-10T18:47:49.660Z,24.65
2022-09-10T18:49:21.726Z,24.60
2022-09-10T18:50:53.276Z,24.57
2022-09-10T18:52:25.105Z,24.55
2022-09-10T18:54:00.835Z,24.51
2022-09-10T18:55:32.864Z,24.47
2022-09-10T18:57:04.860Z,24.47
2022-09-10T18:58:36.907Z,24.46
2022-09-10T19:00:09.219Z,24.44
2022-09-10T19:01:41.569Z,24.44
2022-09-10T19:03:13.273Z,24.41
2022-09-10T19:05:07.372Z,24.33
2022-09-10T19:06:37.889Z,24.24
2022-09-10T19:08:09.517Z,24.12
2022-09-10T19:09:41.603Z,24.02
2022-09-10T19:11:17.440Z,23.95
2022-09-10T19:12:49.147Z,23.86
2022-09-10T19:14:26.417Z,23.82
2022-09-10T19:15:59.451Z,23.80
2022-09-10T19:17:31.620Z,23.77
2022-09-10T19:19:04.430Z,23.75
2022-09-10T19:20:36.648Z,23.71
2022-09-10T19:22:10.316Z,23.70
2022-09-10T19:23:42.014Z,23.67
2022-09-10T19:25:14.276Z,23.64
2022-09-10T19:26:46.219Z,23.62
2022-09-10T19:28:17.965Z,23.57
2022-09-10T19:29:50.669Z,23.52
2022-09-10T19:31:22.790Z,23.49
2022-09-10T19:32:54.469Z,23.45
2022-09-10T19:34:26.997Z,23.41
2022-09-10T19:36:03.363Z,23.40
2022-09-10T19:37:35.168Z,23.35
2022-09-10T19:39:07.968Z,23.31
2022-09-10T19:40:39.843Z,23.25
2022-09-10T19:42:12.783Z,23.19
2022-09-10T19:43:45.192Z,23.12
2022-09-10T19:45:16.780Z,23.08
2022-09-10T19:46:48.420Z,23.08
2022-09-10T19:48:22.083Z,23.09
2022-09-10T19:49:54.165Z,23.02
2022-09-10T19:51:27.405Z,22.98
2022-09-10T19:52:59.023Z,22.97
2022-09-10T19:54:31.260Z,22.96
2022-09-10T19:56:06.138Z,22.92
2022-09-10T19:57:38.126Z,22.91
2022-09-10T19:59:10.081Z,22.88
2022-09-10T20:00:47.066Z,22.85
2022-09-10T20:02:19.225Z,22.85
2022-09-10T20:03:51.107Z,22.85
2022-09-10T20:05:23.461Z,22.81
2022-09-10T20:06:55.262Z,22.81
2022-09-10T20:08:27.516Z,22.83
2022-09-10T20:10:01.814Z,22.88
2022-09-10T20:11:33.835Z,22.88
2022-09-10T20:13:05.808Z,22.82
2022-09-10T20:14:38.195Z,22.80
2022-09-10T20:16:10.425Z,22.74
2022-09-10T20:17:42.007Z,22.73
2022-09-10T20:19:14.682Z,22.78
2022-09-10T20:20:46.899Z,22.83
2022-09-10T20:22:19.534Z,22.87
2022-09-10T20:23:51.839Z,22.81
2022-09-10T20:25:24.994Z,22.75
2022-09-10T20:26:57.124Z,22.72
2022-09-10T20:28:28.854Z,22.73
2022-09-10T20:30:01.479Z,22.70
2022-09-10T20:31:33.978Z,22.67
2022-09-10T20:33:05.930Z,22.65
2022-09-10T20:34:37.840Z,22.63
2022-09-10T20:36:10.948Z,22.57
2022-09-10T20:37:43.013Z,22.51
2022-09-10T20:39:18.206Z,22.43
2022-09-10T20:40:49.731Z,22.37
2022-09-10T20:42:22.472Z,22.34
2022-09-10T20:43:54.068Z,22.30
2022-09-10T20:45:25.633Z,22.26
2022-09-10T20:46:57.296Z,22.23
2022-09-10T20:48:28.931Z,22.11
2022-09-10T20:50:02.171Z,22.04
2022-09-10T20:51:35.236Z,22.00
2022-09-10T20:53:07.767Z,21.98
2022-09-10T20:54:39.439Z,21.96
2022-09-10T20:56:12.336Z,21.96
2022-09-10T20:57:45.057Z,21.99
2022-09-10T20:59:16.810Z,22.00
2022-09-10T21:00:48.503Z,22.01
2022-09-10T21:02:20.207Z,22.02
2022-09-10T21:03:55.121Z,22.02
2022-09-10T21:05:28.378Z,22.00
2022-09-10T21:06:59.907Z,21.99
2022-09-10T21:08:31.866Z,21.96
2022-09-10T21:10:03.617Z,21.95
2022-09-10T21:11:35.252Z,21.95
2022-09-10T21:13:08.989Z,21.93
2022-09-10T21:14:40.574Z,21.95
2022-09-10T21:16:13.000Z,21.93
2022-09-10T21:17:45.183Z,21.93
2022-09-10T21:19:16.888Z,21.89
2022-09-10T21:20:48.523Z,21.86
2022-09-10T21:22:20.452Z,21.82
2022-09-10T21:23:52.711Z,21.81
2022-09-10T21:25:26.501Z,21.73
2022-09-10T21:26:58.211Z,21.74
2022-09-10T21:28:30.273Z,21.71
2022-09-10T21:30:04.097Z,21.71
2022-09-10T21:31:36.132Z,21.68
2022-09-10T21:33:07.823Z,21.64
2022-09-10T21:34:40.462Z,21.60
2022-09-10T21:36:12.801Z,21.59
2022-09-10T21:37:44.525Z,21.60
2022-09-10T21:39:16.856Z,21.62
2022-09-10T21:40:54.490Z,21.63
2022-09-10T21:42:26.527Z,21.60
2022-09-10T21:43:58.763Z,21.58
2022-09-10T21:45:30.404Z,21.54
2022-09-10T21:47:02.503Z,21.54
2022-09-10T21:48:36.490Z,21.50
2022-09-10T21:50:08.341Z,21.51
2022-09-10T21:51:40.139Z,21.48
2022-09-10T21:53:11.833Z,21.47
2022-09-10T21:54:43.369Z,21.45
2022-09-10T21:56:15.639Z,21.43
2022-09-10T21:57:47.725Z,21.44
2022-09-10T21:59:20.509Z,21.45
2022-09-10T22:00:52.247Z,21.44
2022-09-10T22:02:24.527Z,21.38
2022-09-10T22:03:56.905Z,21.30
2022-09-10T22:05:28.834Z,21.25
2022-09-10T22:07:00.385Z,21.23
2022-09-10T22:08:33.381Z,21.20
2022-09-10T22:10:07.073Z,21.24
2022-09-10T22:11:40.744Z,21.24
2022-09-10T22:13:12.274Z,21.23
2022-09-10T22:14:44.151Z,21.18
2022-09-10T22:16:16.370Z,21.13
2022-09-10T22:17:48.393Z,21.08
2022-09-10T22:19:21.806Z,21.06
2022-09-10T22:21:01.190Z,21.02
2022-09-10T22:22:33.087Z,20.97
2022-09-10T22:24:06.544Z,20.94
2022-09-10T22:25:38.041Z,20.89
2022-09-10T22:27:09.561Z,20.88
2022-09-10T22:28:41.488Z,20.88
2022-09-10T22:30:13.263Z,20.81
2022-09-10T22:31:44.960Z,20.79
2022-09-10T22:33:17.817Z,20.80
2022-09-10T22:34:49.359Z,20.78
2022-09-10T22:36:23.621Z,20.75
2022-09-10T22:37:56.379Z,20.72
2022-09-10T22:39:29.780Z,20.67
2022-09-10T22:41:04.802Z,20.64
2022-09-10T22:42:36.334Z,20.58
2022-09-10T22:44:08.129Z,20.51
2022-09-10T22:45:40.180Z,20.47
2022-09-10T22:47:11.773Z,20.43
2022-09-10T22:48:43.545Z,20.40
2022-09-10T22:50:15.466Z,20.36
2022-09-10T22:51:47.126Z,20.33
2022-09-10T22:53:18.784Z,20.29
2022-09-10T22:54:50.416Z,20.24
2022-09-10T22:56:26.333Z,20.22
2022-09-10T22:57:57.897Z,20.22
2022-09-10T22:59:30.474Z,20.22
2022-09-10T23:01:12.997Z,20.17
2022-09-10T23:02:46.533Z,20.16
2022-09-10T23:04:18.112Z,20.16
2022-09-10T23:05:49.700Z,20.11
2022-09-10T23:07:21.863Z,20.04
2022-09-10T23:08:54.405Z,19.98
2022-09-10T23:10:25.976Z,19.95
2022-09-10T23:11:57.541Z,19.95
2022-09-10T23:13:29.201Z,19.97
2022-09-10T23:15:02.379Z,19.99
2022-09-10T23:16:36.575Z,19.99
2022-09-10T23:18:08.232Z,19.91
2022-09-10T23:19:39.742Z,19.80
2022-09-10T23:21:11.875Z,19.73
2022-09-10T23:22:43.399Z,19.69
2022-09-10T23:24:16.007Z,19.65
2022-09-10T23:25:47.573Z,19.66
2022-09-10T23:27:19.103Z,19.67
2022-09-10T23:28:50.648Z,19.70
2022-09-10T23:30:22.817Z,19.68
2022-09-10T23:31:54.501Z,19.66
2022-09-10T23:33:26.293Z,19.62
2022-09-10T23:34:57.873Z,19.59
2022-09-10T23:36:31.661Z,19.57
2022-09-10T23:38:03.125Z,19.53
2022-09-10T23:39:34.718Z,19.51
2022-09-10T23:41:06.492Z,19.50
2022-09-10T23:42:38.174Z,19.48
2022-09-10T23:44:09.719Z,19.48
2022-09-10T23:45:41.449Z,19.49
2022-09-10T23:47:12.945Z,19.48
2022-09-10T23:48:45.976Z,19.48
2022-09-10T23:50:17.931Z,19.51
2022-09-10T23:51:49.829Z,19.53
2022-09-10T23:53:21.721Z,19.56
2022-09-10T23:54:53.797Z,19.56
2022-09-10T23:56:26.174Z,19.55
2022-09-10T23:57:59.149Z,19.55
2022-09-10T23:59:30.670Z,19.56
